Time;durP1;ratioP1;P1;durP2;ratioP2;P2;SDS_P1;SDS_P2;PMS_P1;PMS_P2;Temp;Humidity;BMP_temperature;BMP_pressure;BME280_temperature;BME280_humidity;BME280_pressure;Samples;Min_cycle;Max_cycle;Signal;HPM_P1;HPM_P2
2024/01/05 00:01:22;;;;;;;19.23;4.28;;;7.70;99.90;;;;;;5082726;28;20063;-95
2024/01/05 00:03:48;;;;;;;15.60;4.68;;;7.70;99.90;;;;;;5076761;28;20028;-94
2024/01/05 00:06:13;;;;;;;19.67;4.32;;;7.70;99.90;;;;;;5087483;28;20028;-94
2024/01/05 00:08:39;;;;;;;22.42;5.03;;;7.70;99.90;;;;;;5096234;28;20467;-92
2024/01/05 00:11:04;;;;;;;27.98;5.53;;;7.70;99.90;;;;;;5089460;28;20032;-91
2024/01/05 00:13:30;;;;;;;21.50;6.93;;;7.80;99.90;;;;;;5086371;28;20024;-93
2024/01/05 00:15:55;;;;;;;23.17;6.20;;;7.80;99.90;;;;;;5093656;28;20024;-94
2024/01/05 00:18:21;;;;;;;23.45;6.50;;;7.90;99.90;;;;;;5093513;28;20024;-94
2024/01/05 00:20:47;;;;;;;16.73;5.60;;;7.90;99.90;;;;;;5091870;28;20421;-93
2024/01/05 00:23:12;;;;;;;18.75;5.45;;;7.80;99.90;;;;;;5095722;28;20024;-94
2024/01/05 00:25:38;;;;;;;20.42;5.90;;;7.90;99.90;;;;;;5091433;28;20031;-94
2024/01/05 00:28:03;;;;;;;19.60;5.78;;;8.00;99.90;;;;;;5078336;28;20113;-94
2024/01/05 00:30:29;;;;;;;17.58;5.70;;;7.90;99.90;;;;;;5086141;28;20084;-94
2024/01/05 00:32:55;;;;;;;16.50;5.22;;;7.90;99.90;;;;;;5089683;28;20024;-94
2024/01/05 00:35:20;;;;;;;16.13;5.20;;;7.90;99.90;;;;;;5089100;28;20032;-94
2024/01/05 00:37:46;;;;;;;21.17;5.55;;;7.90;99.90;;;;;;5094309;28;20024;-95
2024/01/05 00:40:12;;;;;;;19.20;5.05;;;7.80;99.90;;;;;;5092690;28;20114;-94
2024/01/05 00:42:37;;;;;;;24.90;5.63;;;7.80;99.90;;;;;;5092062;28;20028;-95
2024/01/05 00:45:04;;;;;;;25.23;5.20;;;7.70;99.90;;;;;;5094723;28;20072;-92
2024/01/05 00:47:30;;;;;;;19.70;5.05;;;7.70;99.90;;;;;;5088672;28;20040;-94
2024/01/05 00:49:55;;;;;;;21.33;4.97;;;7.70;99.90;;;;;;5076136;28;20028;-95
2024/01/05 00:52:21;;;;;;;20.13;4.93;;;7.70;99.90;;;;;;5095245;28;20034;-95
2024/01/05 00:54:48;;;;;;;23.65;4.00;;;7.60;99.90;;;;;;5094560;28;20032;-94
2024/01/05 00:57:13;;;;;;;17.90;4.60;;;7.60;99.90;;;;;;5089190;28;20077;-94
2024/01/05 00:59:39;;;;;;;21.35;3.92;;;7.50;99.90;;;;;;5091518;28;20027;-94
2024/01/05 01:02:05;;;;;;;19.02;3.42;;;7.50;99.90;;;;;;5093452;28;20114;-94
2024/01/05 01:04:30;;;;;;;19.83;4.10;;;7.40;99.90;;;;;;5093929;28;20077;-95
2024/01/05 01:06:56;;;;;;;9.80;3.08;;;7.30;99.90;;;;;;5090826;28;20031;-93
2024/01/05 01:09:21;;;;;;;16.20;3.45;;;7.30;99.90;;;;;;5092799;28;20028;-96
2024/01/05 01:11:50;;;;;;;19.13;3.15;;;7.30;99.90;;;;;;5080618;28;20028;-94
2024/01/05 01:14:16;;;;;;;19.98;2.92;;;7.30;99.90;;;;;;5089658;28;20032;-94
2024/01/05 01:16:41;;;;;;;18.48;3.63;;;7.30;99.90;;;;;;5090555;28;20043;-95
2024/01/05 01:19:07;;;;;;;17.08;3.33;;;7.30;99.90;;;;;;5091432;28;20019;-93
2024/01/05 01:21:33;;;;;;;20.40;2.97;;;7.30;99.90;;;;;;5092613;28;20035;-95
2024/01/05 01:23:58;;;;;;;19.48;3.28;;;7.30;99.90;;;;;;5095450;28;20023;-94
2024/01/05 01:26:24;;;;;;;22.70;3.20;;;7.40;99.90;;;;;;5092654;28;20019;-93
2024/01/05 01:28:50;;;;;;;20.08;3.08;;;7.40;99.90;;;;;;5084641;28;20349;-93
2024/01/05 01:31:15;;;;;;;13.15;2.75;;;7.50;99.90;;;;;;5082984;28;20173;-94
2024/01/05 01:33:41;;;;;;;21.88;3.65;;;7.60;99.90;;;;;;5080118;28;20021;-95
2024/01/05 01:36:06;;;;;;;12.30;2.20;;;7.60;99.90;;;;;;5091714;28;20433;-96
2024/01/05 01:38:32;;;;;;;12.13;1.90;;;7.70;99.90;;;;;;5090426;28;20101;-94
2024/01/05 01:40:58;;;;;;;14.80;2.15;;;7.80;99.90;;;;;;5080966;28;20104;-94
2024/01/05 01:43:27;;;;;;;11.82;3.03;;;7.90;99.90;;;;;;5082820;28;20032;-93
2024/01/05 01:45:57;;;;;;;15.35;2.35;;;8.00;99.90;;;;;;5095052;28;20071;-95
2024/01/05 01:48:23;;;;;;;14.23;3.17;;;8.00;99.90;;;;;;5097288;28;20028;-95
2024/01/05 01:50:49;;;;;;;10.85;1.73;;;8.10;99.90;;;;;;5092477;28;20040;-93
2024/01/05 01:53:18;;;;;;;13.25;2.05;;;8.10;99.90;;;;;;5089116;28;20062;-94
2024/01/05 01:55:46;;;;;;;13.10;1.55;;;8.20;99.90;;;;;;5094687;28;20055;-95
2024/01/05 01:58:14;;;;;;;24.40;3.85;;;8.20;99.90;;;;;;5088439;28;20041;-93
2024/01/05 02:00:40;;;;;;;12.77;1.45;;;8.30;99.90;;;;;;5113748;28;20098;-94
2024/01/05 02:03:05;;;;;;;17.13;1.65;;;8.30;99.90;;;;;;5093894;28;20074;-93
2024/01/05 02:05:31;;;;;;;12.50;1.70;;;8.40;99.90;;;;;;5098103;28;20051;-94
2024/01/05 02:07:57;;;;;;;14.80;1.90;;;8.40;99.90;;;;;;5093134;28;20073;-95
2024/01/05 02:10:23;;;;;;;10.75;2.00;;;8.40;99.90;;;;;;5097603;28;20036;-93
2024/01/05 02:12:49;;;;;;;15.45;1.85;;;8.40;99.90;;;;;;5081406;28;20020;-94
2024/01/05 02:15:15;;;;;;;19.42;1.77;;;8.50;99.90;;;;;;5079847;28;20541;-94
2024/01/05 02:17:40;;;;;;;14.73;1.40;;;8.50;99.90;;;;;;5092807;28;20023;-95
2024/01/05 02:20:06;;;;;;;12.00;1.33;;;8.50;99.90;;;;;;5095801;28;20035;-95
2024/01/05 02:22:34;;;;;;;10.70;1.85;;;8.50;99.90;;;;;;5110352;28;20035;-94
2024/01/05 02:25:01;;;;;;;11.02;1.70;;;8.50;99.90;;;;;;5098637;28;20387;-95
2024/01/05 02:27:27;;;;;;;9.88;1.58;;;8.50;99.90;;;;;;5095464;28;20084;-95
2024/01/05 02:29:53;;;;;;;16.00;1.90;;;8.50;99.90;;;;;;5097646;28;20036;-95
2024/01/05 02:32:18;;;;;;;10.43;1.13;;;8.50;99.90;;;;;;5097826;28;20107;-93
2024/01/05 02:34:45;;;;;;;11.85;1.50;;;8.50;99.90;;;;;;5093554;28;20062;-95
2024/01/05 02:37:10;;;;;;;13.50;1.70;;;8.50;99.90;;;;;;5094342;28;20028;-94
2024/01/05 02:39:36;;;;;;;9.63;1.52;;;8.50;99.90;;;;;;5087326;28;20039;-94
2024/01/05 02:42:02;;;;;;;10.57;1.08;;;8.50;99.90;;;;;;5098138;28;20020;-94
2024/01/05 02:44:27;;;;;;;10.98;1.17;;;8.50;99.90;;;;;;5096776;28;20491;-95
2024/01/05 02:46:53;;;;;;;11.63;1.17;;;8.60;99.90;;;;;;5093936;28;20145;-94
2024/01/05 02:49:18;;;;;;;9.77;1.67;;;8.60;99.90;;;;;;5090064;28;20024;-94
2024/01/05 02:51:44;;;;;;;6.88;1.20;;;8.60;99.90;;;;;;5103955;28;20031;-95
2024/01/05 02:54:10;;;;;;;11.50;1.10;;;8.60;99.90;;;;;;5093120;28;20093;-96
2024/01/05 02:56:36;;;;;;;9.18;0.98;;;8.60;99.90;;;;;;5089754;28;20052;-95
2024/01/05 02:59:06;;;;;;;11.50;1.13;;;8.60;99.90;;;;;;5081367;28;20028;-94
2024/01/05 03:01:32;;;;;;;5.38;1.00;;;8.60;99.90;;;;;;5093946;28;20024;-94
2024/01/05 03:04:00;;;;;;;10.13;0.90;;;8.60;99.90;;;;;;5089083;28;20365;-94
2024/01/05 03:06:26;;;;;;;14.43;1.63;;;8.50;99.90;;;;;;5097148;28;20490;-93
2024/01/05 03:08:51;;;;;;;10.15;0.90;;;8.60;99.90;;;;;;5094946;28;20019;-95
2024/01/05 03:11:17;;;;;;;13.70;1.60;;;8.50;99.90;;;;;;5091158;28;20032;-94
2024/01/05 03:13:42;;;;;;;8.48;1.40;;;8.60;99.90;;;;;;5078671;28;20024;-94
2024/01/05 03:16:08;;;;;;;9.55;1.20;;;8.60;99.90;;;;;;5081950;28;20066;-96
2024/01/05 03:18:34;;;;;;;15.27;1.10;;;8.60;99.90;;;;;;5082570;28;20028;-95
2024/01/05 03:21:00;;;;;;;8.75;0.95;;;8.50;99.90;;;;;;5085343;28;20023;-95
2024/01/05 03:23:25;;;;;;;14.38;1.02;;;8.50;99.90;;;;;;5097401;28;20024;-96
2024/01/05 03:25:51;;;;;;;14.48;1.58;;;8.60;99.90;;;;;;5091023;28;20479;-94
2024/01/05 03:28:17;;;;;;;13.00;1.13;;;8.50;99.90;;;;;;5094062;28;20051;-95
2024/01/05 03:30:43;;;;;;;9.32;0.95;;;8.50;99.90;;;;;;5086234;28;20817;-95
2024/01/05 03:33:09;;;;;;;10.07;1.33;;;8.50;99.90;;;;;;5110992;27;20051;-94
2024/01/05 03:35:36;;;;;;;12.25;1.08;;;8.50;99.90;;;;;;5094452;28;20032;-95
2024/01/05 03:38:02;;;;;;;12.55;0.88;;;8.50;99.90;;;;;;5108810;28;20498;-95
2024/01/05 03:40:27;;;;;;;7.97;0.85;;;8.50;99.90;;;;;;5106989;28;20051;-96
2024/01/05 03:42:53;;;;;;;10.98;1.00;;;8.50;99.90;;;;;;5093129;28;20028;-94
2024/01/05 03:45:19;;;;;;;13.63;1.23;;;8.50;99.90;;;;;;5090548;28;20044;-95
2024/01/05 03:47:45;;;;;;;10.63;1.13;;;8.50;99.90;;;;;;5092371;28;20020;-94
2024/01/05 03:50:11;;;;;;;8.90;1.35;;;8.50;99.90;;;;;;5079910;28;20039;-95
2024/01/05 03:52:36;;;;;;;10.40;1.05;;;8.50;99.90;;;;;;5091299;28;20027;-94
2024/01/05 03:55:02;;;;;;;11.70;1.40;;;8.40;99.90;;;;;;5085958;28;20515;-93
2024/01/05 03:57:28;;;;;;;12.15;1.20;;;8.40;99.90;;;;;;5101658;28;20036;-94
2024/01/05 03:59:53;;;;;;;9.93;1.17;;;8.40;99.90;;;;;;5092517;28;20027;-94
2024/01/05 04:02:19;;;;;;;9.60;0.90;;;8.50;99.90;;;;;;5088205;28;20028;-94
2024/01/05 04:04:45;;;;;;;12.48;1.15;;;8.50;99.90;;;;;;5091076;28;20394;-94
2024/01/05 04:07:11;;;;;;;9.18;1.20;;;8.50;99.90;;;;;;5095661;28;20034;-94
2024/01/05 04:09:36;;;;;;;6.80;1.17;;;8.50;99.90;;;;;;5081937;28;20059;-94
2024/01/05 04:12:02;;;;;;;6.78;1.10;;;8.50;99.90;;;;;;5090576;28;20035;-94
2024/01/05 04:14:28;;;;;;;11.90;1.27;;;8.50;99.90;;;;;;5095536;28;20054;-96
2024/01/05 04:16:54;;;;;;;8.50;0.90;;;8.50;99.90;;;;;;5079315;28;20059;-94
2024/01/05 04:19:19;;;;;;;11.02;2.00;;;8.50;99.90;;;;;;5091949;28;20058;-93
2024/01/05 04:21:45;;;;;;;7.07;1.02;;;8.50;99.90;;;;;;5084455;28;20164;-93
2024/01/05 04:24:11;;;;;;;8.80;1.25;;;8.40;99.90;;;;;;5093391;28;20511;-95
2024/01/05 04:26:36;;;;;;;6.28;1.27;;;8.40;99.90;;;;;;5082162;28;20016;-93
2024/01/05 04:29:02;;;;;;;9.80;1.15;;;8.40;99.90;;;;;;5080276;28;20035;-93
2024/01/05 04:31:28;;;;;;;6.10;1.35;;;8.40;99.90;;;;;;5090489;28;20058;-93
2024/01/05 04:33:54;;;;;;;8.80;1.25;;;8.40;99.90;;;;;;5091655;28;20394;-94
2024/01/05 04:36:20;;;;;;;7.38;1.58;;;8.30;99.90;;;;;;5085771;28;20421;-95
2024/01/05 04:38:45;;;;;;;9.20;1.17;;;8.40;99.90;;;;;;5089275;28;20016;-94
2024/01/05 04:41:16;;;;;;;8.43;1.15;;;8.30;99.90;;;;;;5091330;28;20028;-94
2024/01/05 04:43:43;;;;;;;10.63;1.13;;;8.30;99.90;;;;;;5092774;28;20030;-94
2024/01/05 04:46:09;;;;;;;7.38;1.65;;;8.30;99.90;;;;;;5093427;28;20027;-93
2024/01/05 04:48:35;;;;;;;6.43;1.00;;;8.30;99.90;;;;;;5085709;28;20028;-94
2024/01/05 04:51:01;;;;;;;5.40;0.70;;;8.30;99.90;;;;;;5094396;28;20036;-94
2024/01/05 04:53:27;;;;;;;10.20;1.35;;;8.30;99.90;;;;;;5094629;28;20510;-94
2024/01/05 04:55:52;;;;;;;10.13;1.00;;;8.30;99.90;;;;;;5078327;28;20028;-95
2024/01/05 04:58:18;;;;;;;12.98;1.30;;;8.30;99.90;;;;;;5095633;28;20026;-94
2024/01/05 05:00:44;;;;;;;9.68;1.25;;;8.30;99.90;;;;;;5093666;28;20034;-93
2024/01/05 05:03:10;;;;;;;11.60;1.00;;;8.20;99.90;;;;;;5095853;28;20016;-95
2024/01/05 05:05:39;;;;;;;8.50;1.13;;;8.20;99.90;;;;;;5094819;28;20038;-95
2024/01/05 05:08:05;;;;;;;7.38;1.02;;;8.20;99.90;;;;;;5084114;28;20031;-96
2024/01/05 05:10:30;;;;;;;11.48;1.42;;;8.20;99.90;;;;;;5080899;28;20036;-93
2024/01/05 05:12:56;;;;;;;7.30;1.00;;;8.10;99.90;;;;;;5093144;28;20020;-95
2024/01/05 05:15:21;;;;;;;6.82;1.23;;;8.10;99.90;;;;;;5093615;28;20396;-93
2024/01/05 05:17:47;;;;;;;11.93;1.20;;;8.10;99.90;;;;;;5090264;28;20435;-93
2024/01/05 05:20:12;;;;;;;13.60;0.82;;;8.10;99.90;;;;;;5083013;28;20088;-93
2024/01/05 05:22:38;;;;;;;10.18;2.85;;;8.10;99.90;;;;;;5095069;28;20092;-93
2024/01/05 05:25:05;;;;;;;9.07;1.00;;;8.10;99.90;;;;;;5095171;28;20026;-94
2024/01/05 05:27:31;;;;;;;6.45;0.80;;;8.10;99.90;;;;;;5091410;28;20027;-93
2024/01/05 05:29:57;;;;;;;6.95;1.20;;;8.10;99.90;;;;;;5086327;28;20036;-93
2024/01/05 05:32:23;;;;;;;8.05;0.80;;;8.10;99.90;;;;;;5086039;28;20467;-95
2024/01/05 05:34:49;;;;;;;7.72;0.85;;;8.10;99.90;;;;;;5090561;28;20020;-94
2024/01/05 05:37:15;;;;;;;8.00;0.80;;;8.10;99.90;;;;;;5100073;28;20020;-95
2024/01/05 05:39:40;;;;;;;8.82;1.10;;;8.20;99.90;;;;;;5079953;28;20027;-94
2024/01/05 05:42:06;;;;;;;6.32;0.77;;;8.20;99.90;;;;;;5089688;28;20028;-94
2024/01/05 05:44:31;;;;;;;11.95;1.45;;;8.10;99.90;;;;;;5080071;28;20047;-94
2024/01/05 05:46:57;;;;;;;7.18;0.75;;;8.20;99.90;;;;;;5085932;28;20115;-94
2024/01/05 05:49:23;;;;;;;6.70;0.93;;;8.10;99.90;;;;;;5079909;28;20024;-92
2024/01/05 05:51:48;;;;;;;6.10;0.80;;;8.10;99.90;;;;;;5094663;28;20028;-94
2024/01/05 05:54:14;;;;;;;4.55;0.50;;;8.10;99.90;;;;;;5091177;28;20028;-94
2024/01/05 05:56:40;;;;;;;6.90;0.88;;;8.10;99.90;;;;;;5078573;28;20077;-94
2024/01/05 05:59:06;;;;;;;10.45;0.90;;;8.10;99.90;;;;;;5095330;28;20429;-94
2024/01/05 06:01:31;;;;;;;9.00;0.95;;;8.10;99.90;;;;;;5092949;28;20038;-92
2024/01/05 06:03:57;;;;;;;5.70;0.73;;;8.20;99.90;;;;;;5079982;28;20028;-93
2024/01/05 06:06:23;;;;;;;7.95;0.57;;;8.20;99.90;;;;;;5086351;28;20383;-94
2024/01/05 06:08:51;;;;;;;9.38;0.80;;;8.20;99.90;;;;;;5105721;28;20024;-95
2024/01/05 06:11:18;;;;;;;8.60;0.70;;;8.20;99.90;;;;;;5088733;28;20047;-93
2024/01/05 06:13:44;;;;;;;6.05;0.50;;;8.20;99.90;;;;;;5078266;28;20021;-94
2024/01/05 06:16:10;;;;;;;10.02;1.33;;;8.20;99.90;;;;;;5094183;28;20026;-92
2024/01/05 06:18:37;;;;;;;9.00;0.75;;;8.20;99.90;;;;;;5112434;28;20393;-93
2024/01/05 06:21:03;;;;;;;9.15;0.73;;;8.20;99.90;;;;;;5104504;28;20024;-94
2024/01/05 06:23:30;;;;;;;4.60;0.40;;;8.20;99.90;;;;;;5100891;28;20129;-93
2024/01/05 06:25:56;;;;;;;5.45;0.60;;;8.30;99.90;;;;;;5088134;28;20024;-94
2024/01/05 06:28:22;;;;;;;6.50;0.60;;;8.20;99.90;;;;;;5087656;28;20403;-94
2024/01/05 06:30:47;;;;;;;5.47;0.60;;;8.30;99.90;;;;;;5090426;28;20081;-94
2024/01/05 06:33:13;;;;;;;6.63;0.52;;;8.20;99.90;;;;;;5088928;28;20024;-94
2024/01/05 06:35:39;;;;;;;3.95;0.60;;;8.30;99.90;;;;;;5089461;28;20387;-93
2024/01/05 06:38:04;;;;;;;6.15;0.50;;;8.20;99.90;;;;;;5078217;28;20116;-93
2024/01/05 06:40:30;;;;;;;7.70;0.52;;;8.30;99.90;;;;;;5091245;28;20027;-93
2024/01/05 06:42:57;;;;;;;5.47;0.85;;;8.30;99.90;;;;;;5096955;28;20031;-92
2024/01/05 06:45:25;;;;;;;6.45;0.65;;;8.30;99.90;;;;;;5082953;28;20054;-93
2024/01/05 06:47:51;;;;;;;3.28;0.60;;;8.40;99.90;;;;;;5090802;28;20027;-94
2024/01/05 06:50:17;;;;;;;3.95;0.40;;;8.40;99.90;;;;;;5087063;28;20039;-93
2024/01/05 06:52:43;;;;;;;4.15;0.30;;;8.40;99.90;;;;;;5093435;28;20023;-94
2024/01/05 06:55:09;;;;;;;7.15;0.45;;;8.40;99.90;;;;;;5089051;28;20036;-95
2024/01/05 06:57:38;;;;;;;4.93;0.50;;;8.40;99.90;;;;;;5080759;28;20035;-94
2024/01/05 07:00:09;;;;;;;5.63;0.50;;;8.40;99.90;;;;;;5086268;28;20392;-95
2024/01/05 07:02:35;;;;;;;2.28;0.40;;;8.40;99.90;;;;;;5084322;28;20032;-94
2024/01/05 07:05:01;;;;;;;2.33;0.20;;;8.40;99.90;;;;;;5097088;28;20031;-94
2024/01/05 07:07:27;;;;;;;3.13;0.20;;;8.40;99.90;;;;;;5087979;28;20052;-94
2024/01/05 07:09:53;;;;;;;0.43;0.10;;;8.40;99.90;;;;;;5095991;28;20070;-92
2024/01/05 07:12:19;;;;;;;1.85;0.10;;;8.40;99.90;;;;;;5082774;28;20452;-93
2024/01/05 07:14:46;;;;;;;0.65;0.08;;;8.50;99.90;;;;;;5085560;28;20028;-95
2024/01/05 07:17:12;;;;;;;0.55;0.00;;;8.50;99.90;;;;;;5096382;28;20020;-94
2024/01/05 07:19:38;;;;;;;1.98;0.10;;;8.50;99.90;;;;;;5094808;28;20414;-93
2024/01/05 07:22:04;;;;;;;1.40;0.10;;;8.50;99.90;;;;;;5088234;28;20049;-95
2024/01/05 07:24:30;;;;;;;0.50;0.08;;;8.50;99.90;;;;;;5091316;28;20488;-95
2024/01/05 07:26:55;;;;;;;0.20;0.00;;;8.50;99.90;;;;;;5091553;28;20077;-93
2024/01/05 07:29:21;;;;;;;0.75;0.10;;;8.50;99.90;;;;;;5087740;28;20467;-94
2024/01/05 07:31:47;;;;;;;2.65;0.00;;;8.50;99.90;;;;;;5091596;28;20047;-94
2024/01/05 07:34:12;;;;;;;0.55;0.10;;;8.40;99.90;;;;;;5086288;28;20016;-93
2024/01/05 07:36:42;;;;;;;0.75;0.10;;;8.40;99.90;;;;;;5080256;28;20107;-93
2024/01/05 07:39:11;;;;;;;0.10;0.00;;;8.40;99.90;;;;;;5087414;28;20031;-91
2024/01/05 07:41:37;;;;;;;1.58;0.10;;;8.40;99.90;;;;;;5086886;28;20028;-92
2024/01/05 07:44:02;;;;;;;0.88;0.10;;;8.40;99.90;;;;;;5092988;28;20067;-94
2024/01/05 07:46:28;;;;;;;0.57;0.10;;;8.40;99.90;;;;;;5099252;28;20083;-92
2024/01/05 07:48:57;;;;;;;0.80;0.00;;;8.40;99.90;;;;;;5099057;28;20027;-93
2024/01/05 07:51:23;;;;;;;0.68;0.10;;;8.30;99.90;;;;;;5090781;28;20514;-94
2024/01/05 07:53:49;;;;;;;0.85;0.00;;;8.30;99.90;;;;;;5087587;28;20063;-93
2024/01/05 07:56:17;;;;;;;1.20;0.10;;;8.30;99.90;;;;;;5097871;28;20028;-93
2024/01/05 07:58:43;;;;;;;1.05;0.10;;;8.30;99.90;;;;;;5095061;28;20018;-94
2024/01/05 08:01:17;;;;;;;1.58;0.10;;;8.30;99.90;;;;;;5086523;28;20404;-93
2024/01/05 08:03:46;;;;;;;0.75;0.00;;;8.30;99.90;;;;;;5091819;28;20056;-92
2024/01/05 08:06:16;;;;;;;0.80;0.03;;;8.30;99.90;;;;;;5099611;28;20024;-94
2024/01/05 08:08:46;;;;;;;0.40;0.10;;;8.30;99.90;;;;;;5084146;28;20034;-92
2024/01/05 08:11:12;;;;;;;0.17;0.00;;;8.20;99.90;;;;;;5086689;28;20032;-92
2024/01/05 08:13:43;;;;;;;0.90;0.10;;;8.20;99.90;;;;;;5099065;28;20444;-93
2024/01/05 08:16:09;;;;;;;0.40;0.00;;;8.20;99.90;;;;;;5110485;28;20051;-93
2024/01/05 08:18:35;;;;;;;0.20;0.00;;;8.10;99.90;;;;;;5081552;28;20502;-92
2024/01/05 08:21:02;;;;;;;0.47;0.10;;;8.10;99.90;;;;;;5098143;28;20024;-93
2024/01/05 08:23:28;;;;;;;1.23;0.00;;;8.00;99.90;;;;;;5093449;28;20023;-92
2024/01/05 08:25:54;;;;;;;0.60;0.00;;;8.00;99.90;;;;;;5100302;28;20023;-93
2024/01/05 08:28:19;;;;;;;2.65;0.10;;;8.00;99.90;;;;;;5118376;28;20069;-93
2024/01/05 08:30:45;;;;;;;0.20;0.00;;;7.90;99.90;;;;;;5099354;28;20035;-92
2024/01/05 08:33:10;;;;;;;0.57;0.10;;;7.90;99.90;;;;;;5098555;28;20032;-93
2024/01/05 08:35:36;;;;;;;0.70;0.10;;;7.80;99.90;;;;;;5098831;28;20035;-91
2024/01/05 08:38:04;;;;;;;0.43;0.00;;;7.80;99.90;;;;;;5099243;28;20042;-94
2024/01/05 08:40:30;;;;;;;0.05;0.00;;;7.70;99.90;;;;;;5098446;28;20436;-92
2024/01/05 08:42:57;;;;;;;0.38;0.10;;;7.70;99.90;;;;;;5095527;28;20030;-93
2024/01/05 08:45:23;;;;;;;1.23;0.03;;;7.60;99.90;;;;;;5096210;28;20059;-92
2024/01/05 08:47:49;;;;;;;0.38;0.00;;;7.50;99.90;;;;;;5117270;28;20027;-93
2024/01/05 08:50:18;;;;;;;0.28;0.00;;;7.50;99.90;;;;;;5093735;28;20110;-91
2024/01/05 08:52:45;;;;;;;0.88;0.05;;;7.50;99.90;;;;;;5105436;28;20383;-93
2024/01/05 08:55:14;;;;;;;0.75;0.00;;;7.50;99.90;;;;;;5108674;28;20395;-94
2024/01/05 08:57:39;;;;;;;1.30;0.10;;;7.50;99.90;;;;;;5098255;28;20024;-93
2024/01/05 09:00:09;;;;;;;1.70;0.10;;;7.50;99.90;;;;;;5096548;28;20053;-92
2024/01/05 09:02:35;;;;;;;0.80;0.10;;;7.50;99.90;;;;;;5098255;28;20487;-93
2024/01/05 09:05:03;;;;;;;1.02;0.10;;;7.50;99.90;;;;;;5098422;28;20035;-93
2024/01/05 09:07:32;;;;;;;0.75;0.10;;;7.40;99.90;;;;;;5097250;28;20024;-94
2024/01/05 09:09:58;;;;;;;0.63;0.10;;;7.50;99.90;;;;;;5096033;28;20192;-93
2024/01/05 09:12:24;;;;;;;0.60;0.10;;;7.50;99.90;;;;;;5083072;28;20483;-94
2024/01/05 09:14:49;;;;;;;0.52;0.10;;;7.40;99.90;;;;;;5103572;28;20019;-93
2024/01/05 09:17:15;;;;;;;0.35;0.10;;;7.40;99.90;;;;;;5100821;28;20024;-93
2024/01/05 09:19:40;;;;;;;0.63;0.10;;;7.30;99.90;;;;;;5116580;28;20050;-93
2024/01/05 09:22:07;;;;;;;1.10;0.08;;;7.30;99.90;;;;;;5098232;28;20217;-92
2024/01/05 09:24:33;;;;;;;1.13;0.10;;;7.30;99.90;;;;;;5098391;28;20027;-92
2024/01/05 09:26:58;;;;;;;0.40;0.32;;;7.20;99.90;;;;;;5098546;28;20026;-91
2024/01/05 09:29:24;;;;;;;1.30;0.10;;;7.20;99.90;;;;;;5097804;28;20024;-92
2024/01/05 09:31:51;;;;;;;0.52;0.10;;;7.20;99.90;;;;;;5098551;28;20027;-92
2024/01/05 09:34:17;;;;;;;0.60;0.10;;;7.20;99.90;;;;;;5091230;28;20016;-93
2024/01/05 09:36:42;;;;;;;0.15;0.10;;;7.10;99.90;;;;;;5086671;28;20494;-93
2024/01/05 09:39:10;;;;;;;1.48;0.10;;;7.10;99.90;;;;;;5106294;28;20039;-92
2024/01/05 09:41:36;;;;;;;1.58;0.30;;;7.10;99.90;;;;;;5089731;28;20058;-93
2024/01/05 09:44:03;;;;;;;0.95;0.10;;;7.10;99.90;;;;;;5096507;28;20043;-92
2024/01/05 09:46:28;;;;;;;2.30;0.10;;;7.10;99.90;;;;;;5116117;28;20019;-93
2024/01/05 09:48:57;;;;;;;0.38;0.10;;;7.10;99.90;;;;;;5091712;28;20028;-93
2024/01/05 09:51:29;;;;;;;1.83;0.10;;;7.10;99.90;;;;;;5079956;28;20032;-93
2024/01/05 09:53:54;;;;;;;0.40;0.10;;;7.00;99.90;;;;;;5097692;28;20020;-93
2024/01/05 09:56:22;;;;;;;0.68;0.10;;;7.00;99.90;;;;;;5097546;28;20031;-93
2024/01/05 09:58:51;;;;;;;0.25;0.00;;;6.90;99.90;;;;;;5098223;28;20030;-92
2024/01/05 10:01:26;;;;;;;0.30;0.10;;;6.90;99.90;;;;;;5098196;28;20449;-93
2024/01/05 10:03:56;;;;;;;0.28;0.10;;;6.90;99.90;;;;;;5099191;28;20034;-93
2024/01/05 10:06:22;;;;;;;0.38;0.10;;;6.90;99.90;;;;;;5098587;28;20036;-92
2024/01/05 10:08:57;;;;;;;1.25;0.20;;;6.80;99.90;;;;;;5098936;28;20024;-93
2024/01/05 10:11:31;;;;;;;0.32;0.10;;;6.80;99.90;;;;;;5095951;28;20126;-92
2024/01/05 10:14:02;;;;;;;1.50;0.20;;;6.80;99.90;;;;;;5098956;28;20032;-93
2024/01/05 10:16:36;;;;;;;2.58;0.20;;;6.80;99.90;;;;;;5084688;28;20107;-93
2024/01/05 10:19:17;;;;;;;0.73;0.30;;;6.70;99.90;;;;;;5115155;28;20062;-91
2024/01/05 10:21:45;;;;;;;1.15;0.30;;;6.80;99.90;;;;;;5094251;28;20502;-91
2024/01/05 10:24:21;;;;;;;0.98;0.30;;;6.80;99.90;;;;;;5101423;28;20057;-93
2024/01/05 10:27:00;;;;;;;0.93;0.20;;;6.90;99.90;;;;;;5099290;28;20117;-92
2024/01/05 10:29:25;;;;;;;3.08;0.30;;;6.90;99.90;;;;;;5094519;27;20023;-92
2024/01/05 10:31:52;;;;;;;0.82;0.30;;;6.90;99.90;;;;;;5095477;28;20383;-93
2024/01/05 10:34:17;;;;;;;0.52;0.30;;;7.00;99.90;;;;;;5094586;28;20059;-94
2024/01/05 10:36:43;;;;;;;2.47;0.63;;;7.10;99.90;;;;;;5097904;28;20029;-93
2024/01/05 10:39:09;;;;;;;2.35;0.30;;;7.00;99.90;;;;;;5090881;28;20085;-92
2024/01/05 10:41:35;;;;;;;1.20;0.30;;;7.00;99.90;;;;;;5099533;28;20031;-94
2024/01/05 10:44:02;;;;;;;1.33;0.35;;;7.10;99.90;;;;;;5093003;28;20067;-93
2024/01/05 10:46:31;;;;;;;0.88;0.30;;;7.10;99.90;;;;;;5081947;28;20031;-93
2024/01/05 10:48:57;;;;;;;1.08;0.30;;;7.00;99.90;;;;;;5097362;28;20028;-93
2024/01/05 10:51:23;;;;;;;1.17;0.30;;;7.00;99.90;;;;;;5081215;28;20500;-91
2024/01/05 10:53:49;;;;;;;1.60;0.40;;;7.10;99.90;;;;;;5097482;28;20046;-94
2024/01/05 10:56:20;;;;;;;1.60;0.40;;;7.10;99.90;;;;;;5093675;28;20067;-93
2024/01/05 10:58:49;;;;;;;1.35;0.35;;;7.10;99.90;;;;;;5080387;28;20469;-93
2024/01/05 11:01:18;;;;;;;4.43;0.40;;;7.10;99.90;;;;;;5096611;28;20031;-93
2024/01/05 11:03:47;;;;;;;2.40;0.40;;;7.10;99.90;;;;;;5097228;28;20023;-94
2024/01/05 11:06:13;;;;;;;1.67;0.40;;;7.20;99.90;;;;;;5097603;28;20121;-93
2024/01/05 11:09:23;;;;;;;1.95;0.40;;;7.20;99.90;;;;;;5084223;28;20024;-93
2024/01/05 11:12:27;;;;;;;1.42;0.35;;;7.20;99.90;;;;;;4991554;28;20034;-93
2024/01/05 11:15:11;;;;;;;1.52;0.40;;;7.20;99.90;;;;;;5077864;28;20028;-94
2024/01/05 11:18:05;;;;;;;0.98;0.60;;;7.20;99.90;;;;;;5095559;28;20028;-94
2024/01/05 11:20:39;;;;;;;1.95;0.32;;;7.20;99.90;;;;;;5080392;28;20111;-93
2024/01/05 11:23:06;;;;;;;1.00;0.40;;;7.20;99.90;;;;;;5097095;28;20077;-94
2024/01/05 11:25:32;;;;;;;1.48;0.30;;;7.30;99.90;;;;;;5093843;28;20052;-93
2024/01/05 11:27:58;;;;;;;1.20;0.45;;;7.30;99.90;;;;;;5087915;28;20538;-93
2024/01/05 11:30:41;;;;;;;1.85;0.40;;;7.30;99.90;;;;;;5089965;28;20112;-93
2024/01/05 11:33:09;;;;;;;;;;;7.30;99.90;;;;;;5097399;28;20031;-93
2024/01/05 11:35:44;;;;;;;3.20;0.32;;;7.40;99.90;;;;;;5091982;28;19908;-94
2024/01/05 11:38:30;;;;;;;0.68;0.30;;;7.40;99.90;;;;;;5086516;28;20074;-93
2024/01/05 11:40:56;;;;;;;0.88;0.38;;;7.50;99.90;;;;;;5088184;28;20035;-93
2024/01/05 11:43:27;;;;;;;1.73;0.35;;;7.40;99.90;;;;;;5085951;28;20020;-94
2024/01/05 11:45:53;;;;;;;2.00;0.30;;;7.50;99.90;;;;;;5072019;28;20517;-94
2024/01/05 11:48:37;;;;;;;1.80;0.40;;;7.50;99.90;;;;;;5076299;28;20285;-94
2024/01/05 11:51:02;;;;;;;0.77;0.30;;;7.50;99.90;;;;;;5077102;28;20058;-94
2024/01/05 11:53:29;;;;;;;1.23;0.30;;;7.50;99.90;;;;;;5072421;28;20020;-93
2024/01/05 11:55:56;;;;;;;1.42;0.30;;;7.50;99.90;;;;;;5075615;28;20388;-94
2024/01/05 11:58:35;;;;;;;1.00;0.30;;;7.50;99.90;;;;;;5075303;28;20024;-93
2024/01/05 12:01:05;;;;;;;1.42;0.40;;;7.50;99.90;;;;;;5075742;28;20040;-92
2024/01/05 12:03:30;;;;;;;1.50;0.30;;;7.40;99.90;;;;;;5076701;28;20051;-91
2024/01/05 12:05:58;;;;;;;2.28;0.40;;;7.40;99.90;;;;;;5072250;28;20071;-92
2024/01/05 12:08:25;;;;;;;2.03;0.30;;;7.40;99.90;;;;;;5058216;28;20054;-91
2024/01/05 12:11:00;;;;;;;0.90;0.30;;;7.40;99.90;;;;;;5075219;28;20040;-91
2024/01/05 12:13:27;;;;;;;1.17;0.40;;;7.40;99.90;;;;;;5069825;28;20021;-93
2024/01/05 12:15:54;;;;;;;1.20;0.63;;;7.40;99.90;;;;;;5076551;28;20134;-93
2024/01/05 12:18:25;;;;;;;2.85;0.63;;;7.40;99.90;;;;;;5075266;28;20024;-93
2024/01/05 12:20:55;;;;;;;3.03;0.40;;;7.40;99.90;;;;;;5075719;28;20078;-92
2024/01/05 12:23:21;;;;;;;2.30;0.70;;;7.40;99.90;;;;;;5075240;28;20025;-92
2024/01/05 12:26:07;;;;;;;3.03;0.50;;;7.40;99.90;;;;;;5077388;28;20488;-94
2024/01/05 12:28:37;;;;;;;1.08;0.40;;;7.40;99.90;;;;;;5074074;28;20423;-93
2024/01/05 12:31:05;;;;;;;0.70;0.40;;;7.30;99.90;;;;;;5068183;28;20094;-93
2024/01/05 12:33:33;;;;;;;1.25;0.40;;;7.30;99.90;;;;;;5076213;28;20541;-92
2024/01/05 12:35:58;;;;;;;1.65;0.55;;;7.30;99.90;;;;;;5075549;28;20030;-94
2024/01/05 12:38:26;;;;;;;2.13;0.47;;;7.30;99.90;;;;;;5075309;28;20017;-92
2024/01/05 12:41:03;;;;;;;1.10;0.50;;;7.40;99.90;;;;;;5075647;28;20477;-93
2024/01/05 12:43:29;;;;;;;2.65;0.50;;;7.30;99.90;;;;;;5075078;28;20017;-92
2024/01/05 12:45:55;;;;;;;1.98;0.50;;;7.30;99.90;;;;;;5094606;28;20040;-92
2024/01/05 12:48:26;;;;;;;1.15;0.57;;;7.30;99.90;;;;;;5094346;28;20058;-93
2024/01/05 12:51:05;;;;;;;2.63;0.55;;;7.30;99.90;;;;;;5098818;28;20031;-93
2024/01/05 12:53:31;;;;;;;1.65;0.65;;;7.30;99.90;;;;;;5096603;28;20102;-92